메인 페이지
METAR-TAF:

METAR-TAF

공항 :

선전 바오안 국제공항

선전, 중국

위도: 22-33N, 경도: 114-06E, 고도: 18m

현재 날씨관측

예보는 31분 전, 17:00시(UTC)에 발표되었습니다.
8kt
온도 29°C
습도 89%
기압 1010 hPa
시정 10km 이상
고도 2300ft 상공 구름 보통

METAR: ZGSZ 311700Z 18004MPS 9999 SCT023 29/27 Q1010 NOSIG

시각: 01:31 (17:31 UTC)

예보

예보는 8 시간 23분 전, 09:08시(UTC)에 발표되었습니다.
예보 대상 시간: 31일 12시부터 01일 12시까지 (UTC)
12kt
시정: 8000m
고도 4000ft 상공 구름 보통
일시적
01일 03시부터 01일 09시까지 (UTC)
고도 1500ft 상공 구름 보통
고도 2000ft 상공 구름 조금, 적란운.
고도 3000ft 상공 구름 많음
뇌우, 약한비

TAF: ZGSZ 310908Z 3112/0112 18006MPS 8000 SCT040 TX31/0106Z TN28/3122Z TEMPO 0103/0109 -TSRA SCT015 FEW020CB BKN030

4,000개 이상의 공항 관측 자료 및 예보 (METAR 및 TAF 보고).

지도상에서 검색 가능한 기상관측소가 노란 점과 빨간 점으로 표시되어 있습니다.

기상관측소 명을 보려면 표시 위로 마우스를 이동하세요.

날씨 관측과 예보를 보려면 클릭하세요.

지도 변경 : 확대하려면 엑스 표시가 있는 녹색 버튼, 축소하려면 빼기 표시가 있는 녹색 버튼, 다음 페이지의 지도를 보려면 녹색 화살표를 클릭하세요.


METAR-TAF: